sensor_id;sensor_type;location;lat;lon;timestamp;P1;durP1;ratioP1;P2;durP2;ratioP2
39264;SDS011;42646;51.910;7.724;2023-07-20T00:01:13;5.82;;;4.38;;
39264;SDS011;42646;51.910;7.724;2023-07-20T00:03:41;6.45;;;4.25;;
39264;SDS011;42646;51.910;7.724;2023-07-20T00:06:09;6.28;;;4.30;;
39264;SDS011;42646;51.910;7.724;2023-07-20T00:08:36;5.90;;;4.45;;
39264;SDS011;42646;51.910;7.724;2023-07-20T00:11:05;5.63;;;4.22;;
39264;SDS011;42646;51.910;7.724;2023-07-20T00:13:33;10.93;;;4.63;;
39264;SDS011;42646;51.910;7.724;2023-07-20T00:16:01;6.63;;;4.45;;
39264;SDS011;42646;51.910;7.724;2023-07-20T00:18:30;7.03;;;4.57;;
39264;SDS011;42646;51.910;7.724;2023-07-20T00:20:58;5.97;;;4.32;;
39264;SDS011;42646;51.910;7.724;2023-07-20T00:23:26;7.63;;;4.22;;
39264;SDS011;42646;51.910;7.724;2023-07-20T00:25:54;5.55;;;4.10;;
39264;SDS011;42646;51.910;7.724;2023-07-20T00:28:24;5.30;;;3.90;;
39264;SDS011;42646;51.910;7.724;2023-07-20T00:30:52;6.28;;;3.92;;
39264;SDS011;42646;51.910;7.724;2023-07-20T00:33:20;7.20;;;4.00;;
39264;SDS011;42646;51.910;7.724;2023-07-20T00:35:47;6.63;;;4.30;;
39264;SDS011;42646;51.910;7.724;2023-07-20T00:38:15;6.18;;;4.22;;
39264;SDS011;42646;51.910;7.724;2023-07-20T00:40:43;6.60;;;4.38;;
39264;SDS011;42646;51.910;7.724;2023-07-20T00:43:11;7.53;;;4.40;;
39264;SDS011;42646;51.910;7.724;2023-07-20T00:45:40;6.13;;;4.40;;
39264;SDS011;42646;51.910;7.724;2023-07-20T00:48:09;7.05;;;4.78;;
39264;SDS011;42646;51.910;7.724;2023-07-20T00:50:39;6.97;;;4.82;;
39264;SDS011;42646;51.910;7.724;2023-07-20T00:53:08;7.43;;;4.70;;
39264;SDS011;42646;51.910;7.724;2023-07-20T00:55:38;6.85;;;4.60;;
39264;SDS011;42646;51.910;7.724;2023-07-20T00:58:07;7.43;;;4.90;;
39264;SDS011;42646;51.910;7.724;2023-07-20T01:00:35;7.28;;;4.90;;
39264;SDS011;42646;51.910;7.724;2023-07-20T01:03:04;7.15;;;4.70;;
39264;SDS011;42646;51.910;7.724;2023-07-20T01:05:36;9.50;;;5.00;;
39264;SDS011;42646;51.910;7.724;2023-07-20T01:08:11;7.15;;;4.63;;
39264;SDS011;42646;51.910;7.724;2023-07-20T01:10:43;8.23;;;5.00;;
39264;SDS011;42646;51.910;7.724;2023-07-20T01:13:17;5.93;;;4.70;;
39264;SDS011;42646;51.910;7.724;2023-07-20T01:15:48;6.38;;;4.47;;
39264;SDS011;42646;51.910;7.724;2023-07-20T01:18:20;7.15;;;5.00;;
39264;SDS011;42646;51.910;7.724;2023-07-20T01:20:48;6.85;;;5.15;;
39264;SDS011;42646;51.910;7.724;2023-07-20T01:23:26;7.38;;;5.20;;
39264;SDS011;42646;51.910;7.724;2023-07-20T01:26:11;8.55;;;4.70;;
39264;SDS011;42646;51.910;7.724;2023-07-20T01:29:05;9.30;;;5.25;;
39264;SDS011;42646;51.910;7.724;2023-07-20T01:31:49;6.45;;;4.93;;
39264;SDS011;42646;51.910;7.724;2023-07-20T01:34:20;8.23;;;5.40;;
39264;SDS011;42646;51.910;7.724;2023-07-20T01:36:52;6.93;;;5.28;;
39264;SDS011;42646;51.910;7.724;2023-07-20T01:39:22;7.07;;;5.30;;
39264;SDS011;42646;51.910;7.724;2023-07-20T01:42:18;7.00;;;4.72;;
39264;SDS011;42646;51.910;7.724;2023-07-20T01:44:50;7.65;;;5.28;;
39264;SDS011;42646;51.910;7.724;2023-07-20T01:47:23;7.55;;;5.32;;
39264;SDS011;42646;51.910;7.724;2023-07-20T01:49:51;7.65;;;5.13;;
39264;SDS011;42646;51.910;7.724;2023-07-20T01:52:19;8.38;;;4.90;;
39264;SDS011;42646;51.910;7.724;2023-07-20T01:54:47;7.57;;;5.30;;
39264;SDS011;42646;51.910;7.724;2023-07-20T01:57:15;10.15;;;5.30;;
39264;SDS011;42646;51.910;7.724;2023-07-20T01:59:43;6.57;;;5.03;;
39264;SDS011;42646;51.910;7.724;2023-07-20T02:02:13;7.32;;;5.72;;
39264;SDS011;42646;51.910;7.724;2023-07-20T02:04:42;7.43;;;5.20;;
39264;SDS011;42646;51.910;7.724;2023-07-20T02:07:14;6.63;;;5.10;;
39264;SDS011;42646;51.910;7.724;2023-07-20T02:09:44;9.05;;;5.80;;
39264;SDS011;42646;51.910;7.724;2023-07-20T02:12:12;6.68;;;5.32;;
39264;SDS011;42646;51.910;7.724;2023-07-20T02:14:41;7.45;;;5.15;;
39264;SDS011;42646;51.910;7.724;2023-07-20T02:17:09;7.10;;;5.47;;
39264;SDS011;42646;51.910;7.724;2023-07-20T02:19:40;7.82;;;5.38;;
39264;SDS011;42646;51.910;7.724;2023-07-20T02:22:10;8.75;;;5.70;;
39264;SDS011;42646;51.910;7.724;2023-07-20T02:24:38;7.55;;;5.35;;
39264;SDS011;42646;51.910;7.724;2023-07-20T02:27:08;7.50;;;5.30;;
39264;SDS011;42646;51.910;7.724;2023-07-20T02:29:40;7.75;;;5.18;;
39264;SDS011;42646;51.910;7.724;2023-07-20T02:32:10;8.63;;;6.55;;
39264;SDS011;42646;51.910;7.724;2023-07-20T02:34:38;8.60;;;6.00;;
39264;SDS011;42646;51.910;7.724;2023-07-20T02:37:05;10.18;;;6.95;;
39264;SDS011;42646;51.910;7.724;2023-07-20T02:39:38;9.98;;;6.53;;
39264;SDS011;42646;51.910;7.724;2023-07-20T02:42:11;8.68;;;6.05;;
39264;SDS011;42646;51.910;7.724;2023-07-20T02:44:40;6.95;;;4.82;;
39264;SDS011;42646;51.910;7.724;2023-07-20T02:47:14;6.10;;;4.60;;
39264;SDS011;42646;51.910;7.724;2023-07-20T02:49:42;7.07;;;4.75;;
39264;SDS011;42646;51.910;7.724;2023-07-20T02:52:14;7.33;;;4.70;;
39264;SDS011;42646;51.910;7.724;2023-07-20T02:54:43;6.22;;;4.95;;
39264;SDS011;42646;51.910;7.724;2023-07-20T02:57:12;6.88;;;4.38;;
39264;SDS011;42646;51.910;7.724;2023-07-20T02:59:39;8.25;;;5.00;;
39264;SDS011;42646;51.910;7.724;2023-07-20T03:02:07;6.32;;;5.13;;
39264;SDS011;42646;51.910;7.724;2023-07-20T03:04:37;6.90;;;4.50;;
39264;SDS011;42646;51.910;7.724;2023-07-20T03:07:05;7.13;;;5.35;;
39264;SDS011;42646;51.910;7.724;2023-07-20T03:12:35;6.88;;;5.13;;
39264;SDS011;42646;51.910;7.724;2023-07-20T03:15:06;6.55;;;4.68;;
39264;SDS011;42646;51.910;7.724;2023-07-20T03:17:34;7.03;;;4.90;;
39264;SDS011;42646;51.910;7.724;2023-07-20T03:20:04;6.13;;;4.78;;
39264;SDS011;42646;51.910;7.724;2023-07-20T03:22:36;6.15;;;4.85;;
39264;SDS011;42646;51.910;7.724;2023-07-20T03:25:09;6.40;;;4.80;;
39264;SDS011;42646;51.910;7.724;2023-07-20T03:27:37;6.72;;;4.70;;
39264;SDS011;42646;51.910;7.724;2023-07-20T03:30:06;7.90;;;5.13;;
39264;SDS011;42646;51.910;7.724;2023-07-20T03:32:37;7.25;;;4.85;;
39264;SDS011;42646;51.910;7.724;2023-07-20T03:35:06;6.68;;;4.82;;
39264;SDS011;42646;51.910;7.724;2023-07-20T03:37:34;6.65;;;4.60;;
39264;SDS011;42646;51.910;7.724;2023-07-20T03:40:02;6.50;;;4.75;;
39264;SDS011;42646;51.910;7.724;2023-07-20T03:42:33;6.60;;;5.00;;
39264;SDS011;42646;51.910;7.724;2023-07-20T03:45:02;5.55;;;4.60;;
39264;SDS011;42646;51.910;7.724;2023-07-20T03:47:30;5.35;;;4.15;;
39264;SDS011;42646;51.910;7.724;2023-07-20T03:49:59;5.35;;;4.40;;
39264;SDS011;42646;51.910;7.724;2023-07-20T03:52:26;5.50;;;4.35;;
39264;SDS011;42646;51.910;7.724;2023-07-20T03:54:54;5.63;;;4.78;;
39264;SDS011;42646;51.910;7.724;2023-07-20T03:57:22;5.97;;;4.53;;
39264;SDS011;42646;51.910;7.724;2023-07-20T03:59:57;5.47;;;4.22;;
39264;SDS011;42646;51.910;7.724;2023-07-20T04:02:24;5.60;;;4.53;;
39264;SDS011;42646;51.910;7.724;2023-07-20T04:04:52;5.82;;;4.85;;
39264;SDS011;42646;51.910;7.724;2023-07-20T04:07:24;6.47;;;4.78;;
39264;SDS011;42646;51.910;7.724;2023-07-20T04:09:52;5.93;;;4.88;;
39264;SDS011;42646;51.910;7.724;2023-07-20T04:12:44;6.78;;;5.50;;
39264;SDS011;42646;51.910;7.724;2023-07-20T04:15:15;7.25;;;5.57;;
39264;SDS011;42646;51.910;7.724;2023-07-20T04:17:44;6.10;;;5.32;;
39264;SDS011;42646;51.910;7.724;2023-07-20T04:20:12;6.00;;;5.10;;
39264;SDS011;42646;51.910;7.724;2023-07-20T04:22:41;6.82;;;5.18;;
39264;SDS011;42646;51.910;7.724;2023-07-20T04:25:11;5.45;;;4.10;;
39264;SDS011;42646;51.910;7.724;2023-07-20T04:28:04;6.72;;;4.82;;
39264;SDS011;42646;51.910;7.724;2023-07-20T04:30:39;5.45;;;4.40;;
39264;SDS011;42646;51.910;7.724;2023-07-20T04:33:11;5.60;;;4.57;;
39264;SDS011;42646;51.910;7.724;2023-07-20T04:35:48;5.57;;;4.30;;
39264;SDS011;42646;51.910;7.724;2023-07-20T04:38:22;5.87;;;4.87;;
39264;SDS011;42646;51.910;7.724;2023-07-20T04:40:58;5.85;;;4.53;;
39264;SDS011;42646;51.910;7.724;2023-07-20T04:43:28;5.13;;;4.13;;
39264;SDS011;42646;51.910;7.724;2023-07-20T04:45:58;6.05;;;4.45;;
39264;SDS011;42646;51.910;7.724;2023-07-20T04:48:27;5.07;;;4.15;;
39264;SDS011;42646;51.910;7.724;2023-07-20T04:50:55;6.30;;;4.57;;
39264;SDS011;42646;51.910;7.724;2023-07-20T04:53:24;5.30;;;4.30;;
39264;SDS011;42646;51.910;7.724;2023-07-20T04:55:57;6.28;;;4.70;;
39264;SDS011;42646;51.910;7.724;2023-07-20T04:58:25;5.40;;;4.53;;
39264;SDS011;42646;51.910;7.724;2023-07-20T05:00:55;5.20;;;4.30;;
39264;SDS011;42646;51.910;7.724;2023-07-20T05:03:25;5.22;;;4.57;;
39264;SDS011;42646;51.910;7.724;2023-07-20T05:05:53;5.32;;;4.75;;
39264;SDS011;42646;51.910;7.724;2023-07-20T05:08:21;5.18;;;4.60;;
39264;SDS011;42646;51.910;7.724;2023-07-20T05:10:49;6.15;;;5.15;;
39264;SDS011;42646;51.910;7.724;2023-07-20T05:13:17;7.20;;;5.03;;
39264;SDS011;42646;51.910;7.724;2023-07-20T05:15:45;6.03;;;5.32;;
39264;SDS011;42646;51.910;7.724;2023-07-20T05:18:16;6.25;;;5.22;;
39264;SDS011;42646;51.910;7.724;2023-07-20T05:20:49;7.65;;;6.50;;
39264;SDS011;42646;51.910;7.724;2023-07-20T05:23:18;7.40;;;5.90;;
39264;SDS011;42646;51.910;7.724;2023-07-20T05:25:46;6.78;;;6.07;;
39264;SDS011;42646;51.910;7.724;2023-07-20T05:28:14;6.97;;;6.22;;
39264;SDS011;42646;51.910;7.724;2023-07-20T05:30:44;7.57;;;6.78;;
39264;SDS011;42646;51.910;7.724;2023-07-20T05:33:12;7.72;;;6.45;;
39264;SDS011;42646;51.910;7.724;2023-07-20T05:35:40;6.95;;;6.25;;
39264;SDS011;42646;51.910;7.724;2023-07-20T05:38:10;8.20;;;7.30;;
39264;SDS011;42646;51.910;7.724;2023-07-20T05:43:31;10.10;;;8.70;;
39264;SDS011;42646;51.910;7.724;2023-07-20T05:45:58;9.00;;;8.05;;
39264;SDS011;42646;51.910;7.724;2023-07-20T05:48:27;8.75;;;7.85;;
39264;SDS011;42646;51.910;7.724;2023-07-20T05:50:56;9.13;;;8.23;;
39264;SDS011;42646;51.910;7.724;2023-07-20T05:53:25;9.48;;;8.15;;
39264;SDS011;42646;51.910;7.724;2023-07-20T05:55:55;9.52;;;8.38;;
39264;SDS011;42646;51.910;7.724;2023-07-20T05:58:23;8.95;;;8.05;;
39264;SDS011;42646;51.910;7.724;2023-07-20T06:00:50;9.95;;;8.60;;
39264;SDS011;42646;51.910;7.724;2023-07-20T06:03:18;9.60;;;8.60;;
39264;SDS011;42646;51.910;7.724;2023-07-20T06:05:48;8.50;;;7.57;;
39264;SDS011;42646;51.910;7.724;2023-07-20T06:08:16;9.27;;;7.95;;
39264;SDS011;42646;51.910;7.724;2023-07-20T06:10:50;8.98;;;8.07;;
39264;SDS011;42646;51.910;7.724;2023-07-20T06:13:18;8.52;;;7.43;;
39264;SDS011;42646;51.910;7.724;2023-07-20T06:15:46;8.82;;;7.38;;
39264;SDS011;42646;51.910;7.724;2023-07-20T06:18:15;6.82;;;6.00;;
39264;SDS011;42646;51.910;7.724;2023-07-20T06:20:42;6.40;;;5.57;;
39264;SDS011;42646;51.910;7.724;2023-07-20T06:23:16;6.80;;;6.00;;
39264;SDS011;42646;51.910;7.724;2023-07-20T06:25:45;6.50;;;5.90;;
39264;SDS011;42646;51.910;7.724;2023-07-20T06:28:15;6.93;;;6.22;;
39264;SDS011;42646;51.910;7.724;2023-07-20T06:30:44;7.25;;;6.03;;
39264;SDS011;42646;51.910;7.724;2023-07-20T06:33:12;6.50;;;5.90;;
39264;SDS011;42646;51.910;7.724;2023-07-20T06:35:41;8.30;;;6.93;;
39264;SDS011;42646;51.910;7.724;2023-07-20T06:38:11;6.90;;;6.20;;
39264;SDS011;42646;51.910;7.724;2023-07-20T06:40:42;6.72;;;5.97;;
39264;SDS011;42646;51.910;7.724;2023-07-20T06:43:15;7.15;;;6.20;;
39264;SDS011;42646;51.910;7.724;2023-07-20T06:45:50;6.72;;;5.90;;
39264;SDS011;42646;51.910;7.724;2023-07-20T06:48:19;6.57;;;5.87;;
39264;SDS011;42646;51.910;7.724;2023-07-20T06:50:47;6.13;;;5.53;;
39264;SDS011;42646;51.910;7.724;2023-07-20T06:53:15;7.03;;;6.32;;
39264;SDS011;42646;51.910;7.724;2023-07-20T06:55:44;7.45;;;6.75;;
39264;SDS011;42646;51.910;7.724;2023-07-20T06:58:19;7.53;;;6.57;;
39264;SDS011;42646;51.910;7.724;2023-07-20T07:00:47;7.95;;;7.15;;
39264;SDS011;42646;51.910;7.724;2023-07-20T07:03:15;9.18;;;7.25;;
39264;SDS011;42646;51.910;7.724;2023-07-20T07:05:43;8.50;;;7.70;;
39264;SDS011;42646;51.910;7.724;2023-07-20T07:08:16;7.40;;;6.70;;
39264;SDS011;42646;51.910;7.724;2023-07-20T07:10:45;7.65;;;6.95;;
39264;SDS011;42646;51.910;7.724;2023-07-20T07:13:13;7.97;;;7.18;;
39264;SDS011;42646;51.910;7.724;2023-07-20T07:15:42;7.82;;;7.10;;
39264;SDS011;42646;51.910;7.724;2023-07-20T07:18:10;8.48;;;6.85;;
39264;SDS011;42646;51.910;7.724;2023-07-20T07:20:38;8.15;;;7.35;;
39264;SDS011;42646;51.910;7.724;2023-07-20T07:23:06;7.57;;;6.38;;
39264;SDS011;42646;51.910;7.724;2023-07-20T07:25:34;7.43;;;5.40;;
39264;SDS011;42646;51.910;7.724;2023-07-20T07:28:02;5.45;;;4.50;;
39264;SDS011;42646;51.910;7.724;2023-07-20T07:30:30;4.95;;;3.67;;
39264;SDS011;42646;51.910;7.724;2023-07-20T07:33:01;4.97;;;3.63;;
39264;SDS011;42646;51.910;7.724;2023-07-20T07:35:30;4.32;;;3.33;;
39264;SDS011;42646;51.910;7.724;2023-07-20T07:37:59;4.10;;;2.80;;
39264;SDS011;42646;51.910;7.724;2023-07-20T07:40:47;3.50;;;2.45;;
39264;SDS011;42646;51.910;7.724;2023-07-20T07:43:16;3.30;;;2.38;;
39264;SDS011;42646;51.910;7.724;2023-07-20T07:45:44;6.10;;;2.33;;
39264;SDS011;42646;51.910;7.724;2023-07-20T07:48:16;3.33;;;2.10;;
39264;SDS011;42646;51.910;7.724;2023-07-20T07:50:46;3.03;;;1.73;;
39264;SDS011;42646;51.910;7.724;2023-07-20T07:53:14;4.25;;;1.88;;
39264;SDS011;42646;51.910;7.724;2023-07-20T07:55:42;2.38;;;1.60;;
39264;SDS011;42646;51.910;7.724;2023-07-20T07:58:09;3.90;;;2.00;;
39264;SDS011;42646;51.910;7.724;2023-07-20T08:00:43;3.67;;;1.80;;
39264;SDS011;42646;51.910;7.724;2023-07-20T08:03:11;3.10;;;1.70;;
39264;SDS011;42646;51.910;7.724;2023-07-20T08:05:41;2.80;;;1.52;;
39264;SDS011;42646;51.910;7.724;2023-07-20T08:08:08;2.60;;;1.50;;
39264;SDS011;42646;51.910;7.724;2023-07-20T08:10:37;1.77;;;1.20;;
39264;SDS011;42646;51.910;7.724;2023-07-20T08:13:04;3.28;;;1.40;;
39264;SDS011;42646;51.910;7.724;2023-07-20T08:15:32;3.05;;;1.45;;
39264;SDS011;42646;51.910;7.724;2023-07-20T08:18:00;3.15;;;1.40;;
39264;SDS011;42646;51.910;7.724;2023-07-20T08:20:28;2.50;;;1.45;;
39264;SDS011;42646;51.910;7.724;2023-07-20T08:22:58;2.92;;;1.55;;
39264;SDS011;42646;51.910;7.724;2023-07-20T08:25:25;1.90;;;1.20;;
39264;SDS011;42646;51.910;7.724;2023-07-20T08:27:53;2.03;;;1.30;;
39264;SDS011;42646;51.910;7.724;2023-07-20T08:30:22;3.22;;;1.58;;
39264;SDS011;42646;51.910;7.724;2023-07-20T08:32:50;3.30;;;1.40;;
39264;SDS011;42646;51.910;7.724;2023-07-20T08:35:18;3.95;;;1.30;;
39264;SDS011;42646;51.910;7.724;2023-07-20T08:37:48;4.70;;;1.38;;
39264;SDS011;42646;51.910;7.724;2023-07-20T08:40:18;2.90;;;1.40;;
39264;SDS011;42646;51.910;7.724;2023-07-20T08:42:45;1.83;;;1.10;;
39264;SDS011;42646;51.910;7.724;2023-07-20T08:45:13;2.15;;;1.30;;
39264;SDS011;42646;51.910;7.724;2023-07-20T08:47:43;2.17;;;1.20;;
39264;SDS011;42646;51.910;7.724;2023-07-20T08:50:14;2.05;;;1.10;;
39264;SDS011;42646;51.910;7.724;2023-07-20T08:52:43;2.10;;;1.10;;
39264;SDS011;42646;51.910;7.724;2023-07-20T08:55:11;1.48;;;1.00;;
39264;SDS011;42646;51.910;7.724;2023-07-20T08:57:42;2.25;;;1.25;;
39264;SDS011;42646;51.910;7.724;2023-07-20T09:00:13;2.65;;;1.33;;
39264;SDS011;42646;51.910;7.724;2023-07-20T09:02:43;1.98;;;1.20;;
39264;SDS011;42646;51.910;7.724;2023-07-20T09:05:14;2.10;;;1.13;;
39264;SDS011;42646;51.910;7.724;2023-07-20T09:07:44;2.38;;;1.23;;
39264;SDS011;42646;51.910;7.724;2023-07-20T09:10:13;2.17;;;1.20;;
39264;SDS011;42646;51.910;7.724;2023-07-20T09:12:43;2.55;;;1.23;;
39264;SDS011;42646;51.910;7.724;2023-07-20T09:15:11;1.60;;;1.00;;
39264;SDS011;42646;51.910;7.724;2023-07-20T09:17:39;2.05;;;1.13;;
39264;SDS011;42646;51.910;7.724;2023-07-20T09:20:12;1.60;;;1.10;;
39264;SDS011;42646;51.910;7.724;2023-07-20T09:22:46;2.22;;;1.20;;
39264;SDS011;42646;51.910;7.724;2023-07-20T09:25:16;1.67;;;1.30;;
39264;SDS011;42646;51.910;7.724;2023-07-20T09:30:18;1.67;;;1.02;;
39264;SDS011;42646;51.910;7.724;2023-07-20T09:32:47;1.63;;;1.00;;
39264;SDS011;42646;51.910;7.724;2023-07-20T09:35:20;2.42;;;1.10;;
39264;SDS011;42646;51.910;7.724;2023-07-20T09:37:54;1.85;;;1.05;;
39264;SDS011;42646;51.910;7.724;2023-07-20T09:40:25;1.63;;;1.05;;
39264;SDS011;42646;51.910;7.724;2023-07-20T09:43:00;1.70;;;1.10;;
39264;SDS011;42646;51.910;7.724;2023-07-20T09:45:33;1.60;;;1.00;;
39264;SDS011;42646;51.910;7.724;2023-07-20T09:50:40;2.08;;;1.15;;
39264;SDS011;42646;51.910;7.724;2023-07-20T09:53:11;1.52;;;1.00;;
39264;SDS011;42646;51.910;7.724;2023-07-20T09:55:43;1.17;;;1.00;;
39264;SDS011;42646;51.910;7.724;2023-07-20T09:58:15;2.83;;;1.08;;
39264;SDS011;42646;51.910;7.724;2023-07-20T10:00:43;1.63;;;1.10;;
39264;SDS011;42646;51.910;7.724;2023-07-20T10:03:18;1.63;;;1.10;;
39264;SDS011;42646;51.910;7.724;2023-07-20T10:05:48;1.80;;;0.93;;
39264;SDS011;42646;51.910;7.724;2023-07-20T10:08:20;2.72;;;1.10;;
39264;SDS011;42646;51.910;7.724;2023-07-20T10:10:56;1.98;;;1.10;;
39264;SDS011;42646;51.910;7.724;2023-07-20T10:13:27;1.63;;;1.00;;
39264;SDS011;42646;51.910;7.724;2023-07-20T10:15:58;1.67;;;1.20;;
39264;SDS011;42646;51.910;7.724;2023-07-20T10:18:30;2.97;;;1.10;;
39264;SDS011;42646;51.910;7.724;2023-07-20T10:21:02;1.50;;;0.95;;
39264;SDS011;42646;51.910;7.724;2023-07-20T10:23:37;1.65;;;1.00;;
39264;SDS011;42646;51.910;7.724;2023-07-20T10:26:06;1.40;;;0.90;;
39264;SDS011;42646;51.910;7.724;2023-07-20T10:28:36;1.55;;;0.98;;
39264;SDS011;42646;51.910;7.724;2023-07-20T10:31:05;2.15;;;0.80;;
39264;SDS011;42646;51.910;7.724;2023-07-20T10:33:36;0.85;;;0.80;;
39264;SDS011;42646;51.910;7.724;2023-07-20T10:36:05;1.83;;;1.00;;
39264;SDS011;42646;51.910;7.724;2023-07-20T10:38:38;0.88;;;0.70;;
39264;SDS011;42646;51.910;7.724;2023-07-20T10:41:15;1.65;;;0.90;;
39264;SDS011;42646;51.910;7.724;2023-07-20T10:43:47;4.90;;;1.58;;
39264;SDS011;42646;51.910;7.724;2023-07-20T10:46:42;1.52;;;1.00;;
39264;SDS011;42646;51.910;7.724;2023-07-20T10:49:12;1.40;;;0.90;;
39264;SDS011;42646;51.910;7.724;2023-07-20T10:51:41;0.80;;;0.80;;
39264;SDS011;42646;51.910;7.724;2023-07-20T11:00:09;1.27;;;0.90;;
39264;SDS011;42646;51.910;7.724;2023-07-20T11:02:43;1.83;;;0.88;;
39264;SDS011;42646;51.910;7.724;2023-07-20T11:05:35;1.42;;;0.90;;
39264;SDS011;42646;51.910;7.724;2023-07-20T11:08:06;1.00;;;0.85;;
39264;SDS011;42646;51.910;7.724;2023-07-20T11:10:39;2.15;;;0.80;;
39264;SDS011;42646;51.910;7.724;2023-07-20T11:13:31;1.67;;;0.93;;
39264;SDS011;42646;51.910;7.724;2023-07-20T11:16:05;1.02;;;0.93;;
39264;SDS011;42646;51.910;7.724;2023-07-20T11:18:33;1.30;;;0.82;;
39264;SDS011;42646;51.910;7.724;2023-07-20T11:21:07;1.58;;;0.90;;
39264;SDS011;42646;51.910;7.724;2023-07-20T11:23:38;1.20;;;0.95;;
39264;SDS011;42646;51.910;7.724;2023-07-20T11:26:06;0.98;;;0.80;;
39264;SDS011;42646;51.910;7.724;2023-07-20T11:28:35;1.50;;;0.90;;
39264;SDS011;42646;51.910;7.724;2023-07-20T11:31:05;0.80;;;0.80;;
39264;SDS011;42646;51.910;7.724;2023-07-20T11:33:32;0.80;;;0.80;;
39264;SDS011;42646;51.910;7.724;2023-07-20T11:36:00;0.90;;;0.80;;
39264;SDS011;42646;51.910;7.724;2023-07-20T11:38:28;0.93;;;0.80;;
39264;SDS011;42646;51.910;7.724;2023-07-20T11:40:56;1.67;;;0.80;;
39264;SDS011;42646;51.910;7.724;2023-07-20T11:43:24;1.58;;;0.90;;
39264;SDS011;42646;51.910;7.724;2023-07-20T11:45:52;6.07;;;1.00;;
39264;SDS011;42646;51.910;7.724;2023-07-20T11:48:22;2.58;;;1.00;;
39264;SDS011;42646;51.910;7.724;2023-07-20T11:50:50;1.23;;;0.80;;
39264;SDS011;42646;51.910;7.724;2023-07-20T11:53:18;1.50;;;1.00;;
39264;SDS011;42646;51.910;7.724;2023-07-20T11:55:46;1.10;;;0.90;;
39264;SDS011;42646;51.910;7.724;2023-07-20T11:58:15;1.33;;;0.90;;
39264;SDS011;42646;51.910;7.724;2023-07-20T12:00:43;1.50;;;0.90;;
39264;SDS011;42646;51.910;7.724;2023-07-20T12:03:12;0.70;;;0.70;;
39264;SDS011;42646;51.910;7.724;2023-07-20T12:05:42;0.95;;;0.70;;
39264;SDS011;42646;51.910;7.724;2023-07-20T12:08:27;1.40;;;0.90;;
39264;SDS011;42646;51.910;7.724;2023-07-20T12:10:59;1.07;;;0.83;;
39264;SDS011;42646;51.910;7.724;2023-07-20T12:13:35;1.73;;;0.80;;
39264;SDS011;42646;51.910;7.724;2023-07-20T12:16:08;0.85;;;0.80;;
39264;SDS011;42646;51.910;7.724;2023-07-20T12:18:40;1.05;;;0.80;;
39264;SDS011;42646;51.910;7.724;2023-07-20T12:21:11;1.38;;;0.90;;
39264;SDS011;42646;51.910;7.724;2023-07-20T12:23:40;1.05;;;0.80;;
39264;SDS011;42646;51.910;7.724;2023-07-20T12:26:09;1.42;;;0.80;;
39264;SDS011;42646;51.910;7.724;2023-07-20T12:28:41;1.15;;;0.75;;
39264;SDS011;42646;51.910;7.724;2023-07-20T12:31:09;1.08;;;0.80;;
39264;SDS011;42646;51.910;7.724;2023-07-20T12:33:40;0.70;;;0.70;;
39264;SDS011;42646;51.910;7.724;2023-07-20T12:36:08;1.27;;;0.75;;
39264;SDS011;42646;51.910;7.724;2023-07-20T12:38:38;1.10;;;0.75;;
39264;SDS011;42646;51.910;7.724;2023-07-20T12:41:05;1.02;;;0.80;;
39264;SDS011;42646;51.910;7.724;2023-07-20T12:43:33;1.30;;;0.90;;
39264;SDS011;42646;51.910;7.724;2023-07-20T12:46:01;1.02;;;0.70;;
39264;SDS011;42646;51.910;7.724;2023-07-20T12:48:29;1.40;;;0.88;;
39264;SDS011;42646;51.910;7.724;2023-07-20T12:50:58;0.98;;;0.80;;
39264;SDS011;42646;51.910;7.724;2023-07-20T12:53:26;1.13;;;0.90;;
39264;SDS011;42646;51.910;7.724;2023-07-20T12:55:55;1.70;;;0.90;;
39264;SDS011;42646;51.910;7.724;2023-07-20T12:58:23;1.38;;;0.90;;
39264;SDS011;42646;51.910;7.724;2023-07-20T13:00:51;1.17;;;0.80;;
39264;SDS011;42646;51.910;7.724;2023-07-20T13:03:20;1.00;;;0.80;;
39264;SDS011;42646;51.910;7.724;2023-07-20T13:05:50;1.15;;;0.70;;
39264;SDS011;42646;51.910;7.724;2023-07-20T13:08:22;1.40;;;0.90;;
39264;SDS011;42646;51.910;7.724;2023-07-20T13:10:51;1.27;;;0.80;;
39264;SDS011;42646;51.910;7.724;2023-07-20T13:13:20;1.23;;;0.90;;
39264;SDS011;42646;51.910;7.724;2023-07-20T13:15:48;0.75;;;0.70;;
39264;SDS011;42646;51.910;7.724;2023-07-20T13:18:16;1.23;;;0.80;;
39264;SDS011;42646;51.910;7.724;2023-07-20T13:20:45;1.30;;;0.77;;
39264;SDS011;42646;51.910;7.724;2023-07-20T13:23:14;0.82;;;0.77;;
39264;SDS011;42646;51.910;7.724;2023-07-20T13:26:08;1.27;;;0.80;;
39264;SDS011;42646;51.910;7.724;2023-07-20T13:28:38;0.82;;;0.73;;
39264;SDS011;42646;51.910;7.724;2023-07-20T13:31:06;1.50;;;0.80;;
39264;SDS011;42646;51.910;7.724;2023-07-20T13:33:39;1.23;;;0.95;;
39264;SDS011;42646;51.910;7.724;2023-07-20T13:36:07;0.90;;;0.70;;
39264;SDS011;42646;51.910;7.724;2023-07-20T13:38:35;1.30;;;0.80;;
39264;SDS011;42646;51.910;7.724;2023-07-20T13:41:03;1.50;;;0.80;;
39264;SDS011;42646;51.910;7.724;2023-07-20T13:43:34;0.90;;;0.70;;
39264;SDS011;42646;51.910;7.724;2023-07-20T13:46:04;1.20;;;0.80;;
39264;SDS011;42646;51.910;7.724;2023-07-20T13:48:32;1.13;;;0.80;;
39264;SDS011;42646;51.910;7.724;2023-07-20T13:51:02;0.77;;;0.65;;
39264;SDS011;42646;51.910;7.724;2023-07-20T13:53:30;0.80;;;0.63;;
39264;SDS011;42646;51.910;7.724;2023-07-20T13:56:00;1.40;;;0.77;;
39264;SDS011;42646;51.910;7.724;2023-07-20T13:58:33;1.73;;;0.80;;
39264;SDS011;42646;51.910;7.724;2023-07-20T14:01:28;1.13;;;0.80;;
39264;SDS011;42646;51.910;7.724;2023-07-20T14:04:03;1.20;;;0.70;;
39264;SDS011;42646;51.910;7.724;2023-07-20T14:06:32;2.10;;;1.00;;
39264;SDS011;42646;51.910;7.724;2023-07-20T14:09:02;1.33;;;0.80;;
39264;SDS011;42646;51.910;7.724;2023-07-20T14:11:30;1.38;;;0.70;;
39264;SDS011;42646;51.910;7.724;2023-07-20T14:14:01;1.50;;;0.80;;
39264;SDS011;42646;51.910;7.724;2023-07-20T14:16:31;1.55;;;0.90;;
39264;SDS011;42646;51.910;7.724;2023-07-20T14:18:59;0.90;;;0.80;;
39264;SDS011;42646;51.910;7.724;2023-07-20T14:21:32;2.38;;;0.85;;
39264;SDS011;42646;51.910;7.724;2023-07-20T14:23:59;1.48;;;0.98;;
39264;SDS011;42646;51.910;7.724;2023-07-20T14:26:28;1.95;;;0.98;;
39264;SDS011;42646;51.910;7.724;2023-07-20T14:28:59;0.93;;;0.70;;
39264;SDS011;42646;51.910;7.724;2023-07-20T14:31:28;2.15;;;1.00;;
39264;SDS011;42646;51.910;7.724;2023-07-20T14:34:00;0.75;;;0.75;;
39264;SDS011;42646;51.910;7.724;2023-07-20T14:36:28;0.85;;;0.80;;
39264;SDS011;42646;51.910;7.724;2023-07-20T14:38:59;1.30;;;0.90;;
39264;SDS011;42646;51.910;7.724;2023-07-20T14:41:27;1.67;;;0.90;;
39264;SDS011;42646;51.910;7.724;2023-07-20T14:43:55;1.17;;;0.80;;
39264;SDS011;42646;51.910;7.724;2023-07-20T14:46:23;1.60;;;1.00;;
39264;SDS011;42646;51.910;7.724;2023-07-20T14:48:52;1.25;;;0.88;;
39264;SDS011;42646;51.910;7.724;2023-07-20T14:51:21;2.03;;;1.05;;
39264;SDS011;42646;51.910;7.724;2023-07-20T14:53:49;1.45;;;0.90;;
39264;SDS011;42646;51.910;7.724;2023-07-20T14:56:17;0.93;;;0.80;;
39264;SDS011;42646;51.910;7.724;2023-07-20T14:58:45;2.40;;;0.90;;
39264;SDS011;42646;51.910;7.724;2023-07-20T15:01:13;1.67;;;0.85;;
39264;SDS011;42646;51.910;7.724;2023-07-20T15:03:41;1.90;;;0.90;;
39264;SDS011;42646;51.910;7.724;2023-07-20T15:06:10;1.27;;;0.80;;
39264;SDS011;42646;51.910;7.724;2023-07-20T15:08:42;0.80;;;0.75;;
39264;SDS011;42646;51.910;7.724;2023-07-20T15:11:09;0.77;;;0.70;;
39264;SDS011;42646;51.910;7.724;2023-07-20T15:13:37;0.90;;;0.88;;
39264;SDS011;42646;51.910;7.724;2023-07-20T15:16:10;0.88;;;0.75;;
39264;SDS011;42646;51.910;7.724;2023-07-20T15:18:38;1.30;;;0.80;;
39264;SDS011;42646;51.910;7.724;2023-07-20T15:21:14;1.33;;;0.90;;
39264;SDS011;42646;51.910;7.724;2023-07-20T15:23:43;1.35;;;1.00;;